sensor_id;sensor_type;location;lat;lon;timestamp;pressure;altitude;pressure_sealevel;temperature;humidity
81177;BME280;70786;48.272;14.200;2023-06-26T00:01:25;98076.41;;;18.11;62.16
81177;BME280;70786;48.272;14.200;2023-06-26T00:03:55;98074.69;;;18.02;63.38
81177;BME280;70786;48.272;14.200;2023-06-26T00:06:21;98074.94;;;17.53;63.91
81177;BME280;70786;48.272;14.200;2023-06-26T00:08:50;98074.22;;;17.33;66.31
81177;BME280;70786;48.272;14.200;2023-06-26T00:11:16;98076.28;;;17.29;65.67
81177;BME280;70786;48.272;14.200;2023-06-26T00:13:42;98071.47;;;17.35;65.89
81177;BME280;70786;48.272;14.200;2023-06-26T00:16:08;98073.72;;;17.20;65.68
81177;BME280;70786;48.272;14.200;2023-06-26T00:18:34;98076.19;;;17.21;66.09
81177;BME280;70786;48.272;14.200;2023-06-26T00:21:00;98079.31;;;16.29;71.91
81177;BME280;70786;48.272;14.200;2023-06-26T00:23:26;98083.50;;;15.82;74.97
81177;BME280;70786;48.272;14.200;2023-06-26T00:25:53;98087.63;;;15.84;75.60
81177;BME280;70786;48.272;14.200;2023-06-26T00:28:19;98085.13;;;15.73;75.66
81177;BME280;70786;48.272;14.200;2023-06-26T00:30:45;98083.78;;;15.79;75.78
81177;BME280;70786;48.272;14.200;2023-06-26T00:33:11;98083.13;;;16.06;74.71
81177;BME280;70786;48.272;14.200;2023-06-26T00:35:37;98073.28;;;16.29;73.89
81177;BME280;70786;48.272;14.200;2023-06-26T00:38:03;98075.06;;;16.38;72.68
81177;BME280;70786;48.272;14.200;2023-06-26T00:40:29;98071.66;;;16.28;72.14
81177;BME280;70786;48.272;14.200;2023-06-26T00:42:55;98086.59;;;16.26;72.00
81177;BME280;70786;48.272;14.200;2023-06-26T00:45:21;98077.66;;;16.38;72.30
81177;BME280;70786;48.272;14.200;2023-06-26T00:47:47;98075.63;;;16.51;72.18
81177;BME280;70786;48.272;14.200;2023-06-26T00:50:13;98079.72;;;16.63;70.35
81177;BME280;70786;48.272;14.200;2023-06-26T00:52:41;98075.06;;;16.57;70.48
81177;BME280;70786;48.272;14.200;2023-06-26T00:55:08;98075.59;;;16.61;70.45
81177;BME280;70786;48.272;14.200;2023-06-26T00:57:35;98083.97;;;16.55;70.59
81177;BME280;70786;48.272;14.200;2023-06-26T01:00:01;98082.06;;;16.67;69.66
81177;BME280;70786;48.272;14.200;2023-06-26T01:02:29;98072.72;;;16.64;70.69
81177;BME280;70786;48.272;14.200;2023-06-26T01:05:02;98076.03;;;16.47;71.59
81177;BME280;70786;48.272;14.200;2023-06-26T01:07:35;98081.09;;;16.19;73.41
81177;BME280;70786;48.272;14.200;2023-06-26T01:10:04;98075.47;;;16.04;73.88
81177;BME280;70786;48.272;14.200;2023-06-26T01:12:32;98068.03;;;16.00;73.23
81177;BME280;70786;48.272;14.200;2023-06-26T01:14:59;98066.56;;;16.07;73.97
81177;BME280;70786;48.272;14.200;2023-06-26T01:17:27;98064.66;;;16.18;72.58
81177;BME280;70786;48.272;14.200;2023-06-26T01:20:01;98060.94;;;16.21;73.06
81177;BME280;70786;48.272;14.200;2023-06-26T01:27:37;98057.38;;;16.12;72.77
81177;BME280;70786;48.272;14.200;2023-06-26T01:30:04;98045.69;;;15.97;73.44
81177;BME280;70786;48.272;14.200;2023-06-26T01:32:32;98044.19;;;16.04;72.39
81177;BME280;70786;48.272;14.200;2023-06-26T01:34:59;98053.22;;;15.90;73.25
81177;BME280;70786;48.272;14.200;2023-06-26T01:37:26;98048.44;;;16.15;73.10
81177;BME280;70786;48.272;14.200;2023-06-26T01:39:52;98038.16;;;16.23;71.92
81177;BME280;70786;48.272;14.200;2023-06-26T01:42:18;98044.59;;;15.49;75.95
81177;BME280;70786;48.272;14.200;2023-06-26T01:44:45;98050.53;;;15.21;78.31
81177;BME280;70786;48.272;14.200;2023-06-26T01:47:16;98043.78;;;15.09;79.16
81177;BME280;70786;48.272;14.200;2023-06-26T01:55:12;98038.72;;;15.17;76.44
81177;BME280;70786;48.272;14.200;2023-06-26T01:57:41;98038.09;;;15.24;77.04
81177;BME280;70786;48.272;14.200;2023-06-26T02:00:09;98040.16;;;15.31;76.77
81177;BME280;70786;48.272;14.200;2023-06-26T02:02:45;98036.44;;;15.23;76.09
81177;BME280;70786;48.272;14.200;2023-06-26T02:05:12;98044.41;;;15.32;75.47
81177;BME280;70786;48.272;14.200;2023-06-26T02:07:39;98042.66;;;15.32;75.41
81177;BME280;70786;48.272;14.200;2023-06-26T02:10:08;98045.38;;;15.31;77.30
81177;BME280;70786;48.272;14.200;2023-06-26T02:12:40;98047.72;;;15.34;76.80
81177;BME280;70786;48.272;14.200;2023-06-26T02:15:07;98048.25;;;15.27;76.95
81177;BME280;70786;48.272;14.200;2023-06-26T02:17:34;98049.75;;;15.30;76.61
81177;BME280;70786;48.272;14.200;2023-06-26T02:20:06;98044.81;;;14.96;78.18
81177;BME280;70786;48.272;14.200;2023-06-26T02:22:35;98052.88;;;14.93;79.23
81177;BME280;70786;48.272;14.200;2023-06-26T02:25:05;98054.63;;;14.93;77.58
81177;BME280;70786;48.272;14.200;2023-06-26T02:27:35;98056.22;;;15.05;78.30
81177;BME280;70786;48.272;14.200;2023-06-26T02:30:01;98045.38;;;15.00;79.01
81177;BME280;70786;48.272;14.200;2023-06-26T02:32:30;98052.13;;;15.02;77.25
81177;BME280;70786;48.272;14.200;2023-06-26T02:34:57;98057.94;;;14.95;78.17
81177;BME280;70786;48.272;14.200;2023-06-26T02:37:24;98052.75;;;14.95;78.52
81177;BME280;70786;48.272;14.200;2023-06-26T02:39:53;98062.34;;;14.94;78.33
81177;BME280;70786;48.272;14.200;2023-06-26T02:42:22;98052.97;;;14.82;78.49
81177;BME280;70786;48.272;14.200;2023-06-26T02:44:51;98062.81;;;14.78;78.41
81177;BME280;70786;48.272;14.200;2023-06-26T02:47:20;98065.31;;;14.90;79.82
81177;BME280;70786;48.272;14.200;2023-06-26T02:49:47;98065.72;;;14.64;78.40
81177;BME280;70786;48.272;14.200;2023-06-26T02:52:13;98062.72;;;14.69;79.88
81177;BME280;70786;48.272;14.200;2023-06-26T02:54:40;98065.31;;;14.69;78.31
81177;BME280;70786;48.272;14.200;2023-06-26T02:57:06;98062.41;;;14.62;80.00
81177;BME280;70786;48.272;14.200;2023-06-26T02:59:36;98065.72;;;14.64;80.32
81177;BME280;70786;48.272;14.200;2023-06-26T03:02:02;98074.28;;;14.55;81.16
81177;BME280;70786;48.272;14.200;2023-06-26T03:04:29;98065.16;;;14.49;80.40
81177;BME280;70786;48.272;14.200;2023-06-26T03:06:55;98071.47;;;14.35;80.77
81177;BME280;70786;48.272;14.200;2023-06-26T03:09:24;98063.88;;;14.44;79.83
81177;BME280;70786;48.272;14.200;2023-06-26T03:11:51;98063.63;;;14.58;80.14
81177;BME280;70786;48.272;14.200;2023-06-26T03:14:19;98068.41;;;14.84;79.90
81177;BME280;70786;48.272;14.200;2023-06-26T03:16:45;98072.59;;;14.54;81.04
81177;BME280;70786;48.272;14.200;2023-06-26T03:19:12;98076.03;;;14.54;80.07
81177;BME280;70786;48.272;14.200;2023-06-26T03:21:38;98076.41;;;14.71;78.63
81177;BME280;70786;48.272;14.200;2023-06-26T03:24:05;98073.31;;;14.77;80.04
81177;BME280;70786;48.272;14.200;2023-06-26T03:26:34;98077.75;;;14.86;79.97
81177;BME280;70786;48.272;14.200;2023-06-26T03:29:01;98075.03;;;14.88;79.69
81177;BME280;70786;48.272;14.200;2023-06-26T03:31:27;98067.84;;;15.01;79.62
81177;BME280;70786;48.272;14.200;2023-06-26T03:33:53;98086.31;;;14.98;80.41
81177;BME280;70786;48.272;14.200;2023-06-26T03:36:20;98086.75;;;15.03;79.30
81177;BME280;70786;48.272;14.200;2023-06-26T03:38:46;98079.88;;;15.02;79.72
81177;BME280;70786;48.272;14.200;2023-06-26T03:41:13;98086.53;;;15.16;79.08
81177;BME280;70786;48.272;14.200;2023-06-26T03:43:42;98089.34;;;15.34;78.78
81177;BME280;70786;48.272;14.200;2023-06-26T03:46:09;98080.66;;;15.54;77.89
81177;BME280;70786;48.272;14.200;2023-06-26T03:48:35;98086.66;;;15.76;76.98
81177;BME280;70786;48.272;14.200;2023-06-26T03:51:03;98087.34;;;15.78;76.58
81177;BME280;70786;48.272;14.200;2023-06-26T03:53:33;98072.81;;;15.85;76.50
81177;BME280;70786;48.272;14.200;2023-06-26T03:56:02;98080.69;;;16.04;75.54
81177;BME280;70786;48.272;14.200;2023-06-26T03:58:29;98080.56;;;15.65;76.31
81177;BME280;70786;48.272;14.200;2023-06-26T04:00:55;98078.19;;;15.93;75.72
81177;BME280;70786;48.272;14.200;2023-06-26T04:03:24;98079.47;;;16.37;75.65
81177;BME280;70786;48.272;14.200;2023-06-26T04:05:50;98071.63;;;16.67;73.19
81177;BME280;70786;48.272;14.200;2023-06-26T04:08:17;98074.50;;;16.63;72.80
81177;BME280;70786;48.272;14.200;2023-06-26T04:10:45;98086.59;;;16.55;74.13
81177;BME280;70786;48.272;14.200;2023-06-26T04:13:16;98085.22;;;16.80;72.17
81177;BME280;70786;48.272;14.200;2023-06-26T04:15:48;98085.69;;;17.13;72.65
81177;BME280;70786;48.272;14.200;2023-06-26T04:18:17;98086.09;;;17.45;70.32
81177;BME280;70786;48.272;14.200;2023-06-26T04:21:08;98083.88;;;17.23;71.39
81177;BME280;70786;48.272;14.200;2023-06-26T04:23:35;98095.56;;;17.56;70.59
81177;BME280;70786;48.272;14.200;2023-06-26T04:26:03;98092.09;;;17.93;68.20
81177;BME280;70786;48.272;14.200;2023-06-26T04:28:32;98098.75;;;18.41;67.24
81177;BME280;70786;48.272;14.200;2023-06-26T04:31:05;98094.13;;;18.53;66.01
81177;BME280;70786;48.272;14.200;2023-06-26T04:33:35;98091.28;;;18.64;66.28
81177;BME280;70786;48.272;14.200;2023-06-26T04:36:04;98104.44;;;18.36;67.08
81177;BME280;70786;48.272;14.200;2023-06-26T04:38:37;98095.69;;;18.63;66.85
81177;BME280;70786;48.272;14.200;2023-06-26T04:41:04;98098.75;;;18.59;66.15
81177;BME280;70786;48.272;14.200;2023-06-26T04:43:33;98100.63;;;18.66;65.70
81177;BME280;70786;48.272;14.200;2023-06-26T04:46:04;98102.53;;;18.74;64.63
81177;BME280;70786;48.272;14.200;2023-06-26T04:48:33;98099.91;;;19.26;63.52
81177;BME280;70786;48.272;14.200;2023-06-26T04:51:03;98105.06;;;19.70;62.03
81177;BME280;70786;48.272;14.200;2023-06-26T04:53:29;98101.16;;;19.14;63.16
81177;BME280;70786;48.272;14.200;2023-06-26T04:55:56;98100.56;;;19.63;60.96
81177;BME280;70786;48.272;14.200;2023-06-26T04:58:24;98105.44;;;19.92;60.49
81177;BME280;70786;48.272;14.200;2023-06-26T05:00:53;98099.16;;;20.35;58.92
81177;BME280;70786;48.272;14.200;2023-06-26T05:03:28;98102.41;;;20.21;59.45
81177;BME280;70786;48.272;14.200;2023-06-26T05:05:55;98096.31;;;20.12;59.06
81177;BME280;70786;48.272;14.200;2023-06-26T05:08:25;98098.38;;;20.67;58.21
81177;BME280;70786;48.272;14.200;2023-06-26T05:10:55;98104.31;;;19.60;60.89
81177;BME280;70786;48.272;14.200;2023-06-26T05:13:25;98098.19;;;20.61;58.05
81177;BME280;70786;48.272;14.200;2023-06-26T05:15:52;98099.00;;;21.02;56.70
81177;BME280;70786;48.272;14.200;2023-06-26T05:18:19;98093.09;;;20.76;58.20
81177;BME280;70786;48.272;14.200;2023-06-26T05:20:50;98091.28;;;20.76;57.84
81177;BME280;70786;48.272;14.200;2023-06-26T05:23:20;98096.53;;;20.35;59.68
81177;BME280;70786;48.272;14.200;2023-06-26T05:25:48;98085.53;;;20.48;58.46
81177;BME280;70786;48.272;14.200;2023-06-26T05:28:16;98087.78;;;21.33;56.71
81177;BME280;70786;48.272;14.200;2023-06-26T05:30:43;98092.09;;;21.01;57.63
81177;BME280;70786;48.272;14.200;2023-06-26T05:33:17;98095.06;;;20.90;57.72
81177;BME280;70786;48.272;14.200;2023-06-26T05:35:45;98092.13;;;20.93;58.64
81177;BME280;70786;48.272;14.200;2023-06-26T05:38:13;98095.50;;;21.74;54.68
81177;BME280;70786;48.272;14.200;2023-06-26T05:40:40;98091.38;;;21.48;56.51
81177;BME280;70786;48.272;14.200;2023-06-26T05:43:09;98097.91;;;21.52;55.12
81177;BME280;70786;48.272;14.200;2023-06-26T05:45:50;98090.88;;;21.84;55.59
81177;BME280;70786;48.272;14.200;2023-06-26T05:48:19;98096.03;;;21.69;53.95
81177;BME280;70786;48.272;14.200;2023-06-26T05:50:46;98092.53;;;22.39;53.27
81177;BME280;70786;48.272;14.200;2023-06-26T05:53:16;98092.59;;;22.54;53.67
81177;BME280;70786;48.272;14.200;2023-06-26T05:55:43;98090.59;;;22.56;52.55
81177;BME280;70786;48.272;14.200;2023-06-26T05:58:12;98091.31;;;21.56;56.03
81177;BME280;70786;48.272;14.200;2023-06-26T06:00:41;98087.66;;;21.18;57.85
81177;BME280;70786;48.272;14.200;2023-06-26T06:03:09;98086.47;;;23.00;53.45
81177;BME280;70786;48.272;14.200;2023-06-26T06:05:39;98086.56;;;23.21;52.20
81177;BME280;70786;48.272;14.200;2023-06-26T06:08:08;98095.59;;;23.71;50.94
81177;BME280;70786;48.272;14.200;2023-06-26T06:10:35;98102.75;;;23.77;49.59
81177;BME280;70786;48.272;14.200;2023-06-26T06:13:01;98104.22;;;23.80;49.17
81177;BME280;70786;48.272;14.200;2023-06-26T06:15:28;98099.00;;;22.97;53.05
81177;BME280;70786;48.272;14.200;2023-06-26T06:17:54;98099.66;;;23.59;51.44
81177;BME280;70786;48.272;14.200;2023-06-26T06:20:21;98091.38;;;22.80;53.51
81177;BME280;70786;48.272;14.200;2023-06-26T06:22:48;98096.81;;;23.01;51.61
81177;BME280;70786;48.272;14.200;2023-06-26T06:25:15;98098.06;;;24.30;48.88
81177;BME280;70786;48.272;14.200;2023-06-26T06:27:41;98094.09;;;24.84;47.23
81177;BME280;70786;48.272;14.200;2023-06-26T06:30:11;98099.38;;;23.83;48.36
81177;BME280;70786;48.272;14.200;2023-06-26T06:32:40;98093.34;;;24.90;47.18
81177;BME280;70786;48.272;14.200;2023-06-26T06:35:12;98086.63;;;24.94;48.21
81177;BME280;70786;48.272;14.200;2023-06-26T06:37:39;98100.09;;;24.50;49.09
81177;BME280;70786;48.272;14.200;2023-06-26T06:40:06;98089.81;;;25.11;47.54
81177;BME280;70786;48.272;14.200;2023-06-26T06:42:33;98096.19;;;24.24;47.96
81177;BME280;70786;48.272;14.200;2023-06-26T06:44:59;98095.38;;;23.13;50.55
81177;BME280;70786;48.272;14.200;2023-06-26T06:47:25;98093.84;;;23.49;51.83
81177;BME280;70786;48.272;14.200;2023-06-26T06:49:51;98075.09;;;24.74;47.26
81177;BME280;70786;48.272;14.200;2023-06-26T06:52:17;98076.09;;;23.42;50.04
81177;BME280;70786;48.272;14.200;2023-06-26T06:54:51;98078.09;;;23.70;50.08
81177;BME280;70786;48.272;14.200;2023-06-26T06:57:19;98078.25;;;24.20;48.33
81177;BME280;70786;48.272;14.200;2023-06-26T06:59:46;98081.28;;;25.85;42.88
81177;BME280;70786;48.272;14.200;2023-06-26T07:02:14;98085.00;;;25.56;43.98
81177;BME280;70786;48.272;14.200;2023-06-26T07:04:40;98086.72;;;26.92;40.74
81177;BME280;70786;48.272;14.200;2023-06-26T07:07:06;98085.50;;;25.80;43.15
81177;BME280;70786;48.272;14.200;2023-06-26T07:09:32;98078.66;;;25.92;43.62
81177;BME280;70786;48.272;14.200;2023-06-26T07:11:58;98080.03;;;24.55;46.58
81177;BME280;70786;48.272;14.200;2023-06-26T07:14:24;98087.09;;;24.48;46.59
81177;BME280;70786;48.272;14.200;2023-06-26T07:16:49;98080.53;;;24.94;45.33
81177;BME280;70786;48.272;14.200;2023-06-26T07:19:16;98071.41;;;26.21;41.34
81177;BME280;70786;48.272;14.200;2023-06-26T07:21:42;98084.13;;;24.00;47.11
81177;BME280;70786;48.272;14.200;2023-06-26T07:24:10;98079.72;;;24.44;45.31
81177;BME280;70786;48.272;14.200;2023-06-26T07:26:36;98071.25;;;25.74;43.53
81177;BME280;70786;48.272;14.200;2023-06-26T07:29:02;98068.66;;;24.83;46.76
81177;BME280;70786;48.272;14.200;2023-06-26T07:31:28;98068.38;;;24.71;45.73
81177;BME280;70786;48.272;14.200;2023-06-26T07:33:54;98070.25;;;25.82;43.76
81177;BME280;70786;48.272;14.200;2023-06-26T07:36:20;98075.44;;;26.17;42.66
81177;BME280;70786;48.272;14.200;2023-06-26T07:38:46;98082.66;;;26.96;42.74
81177;BME280;70786;48.272;14.200;2023-06-26T07:41:12;98075.22;;;27.44;40.20
81177;BME280;70786;48.272;14.200;2023-06-26T07:43:38;98084.06;;;27.12;40.34
81177;BME280;70786;48.272;14.200;2023-06-26T07:46:04;98082.44;;;27.24;38.52
81177;BME280;70786;48.272;14.200;2023-06-26T07:48:30;98077.56;;;26.61;42.59
81177;BME280;70786;48.272;14.200;2023-06-26T07:50:56;98080.25;;;27.79;40.01
81177;BME280;70786;48.272;14.200;2023-06-26T07:53:22;98071.94;;;27.56;39.48
81177;BME280;70786;48.272;14.200;2023-06-26T07:55:48;98066.69;;;26.16;42.84
81177;BME280;70786;48.272;14.200;2023-06-26T07:58:14;98070.84;;;26.78;42.13
81177;BME280;70786;48.272;14.200;2023-06-26T08:00:40;98076.06;;;28.28;38.37
81177;BME280;70786;48.272;14.200;2023-06-26T08:03:06;98076.66;;;26.07;41.83
81177;BME280;70786;48.272;14.200;2023-06-26T08:05:32;98071.34;;;27.99;38.97
81177;BME280;70786;48.272;14.200;2023-06-26T08:07:58;98068.56;;;27.29;39.43
81177;BME280;70786;48.272;14.200;2023-06-26T08:10:25;98066.97;;;27.01;41.61
81177;BME280;70786;48.272;14.200;2023-06-26T08:12:51;98066.31;;;27.84;39.93
81177;BME280;70786;48.272;14.200;2023-06-26T08:15:18;98066.56;;;26.77;39.78
81177;BME280;70786;48.272;14.200;2023-06-26T08:17:44;98063.31;;;26.69;40.86
81177;BME280;70786;48.272;14.200;2023-06-26T08:20:11;98071.19;;;27.93;38.76
81177;BME280;70786;48.272;14.200;2023-06-26T08:22:37;98072.22;;;28.24;38.08
81177;BME280;70786;48.272;14.200;2023-06-26T08:25:03;98072.94;;;27.61;40.11
81177;BME280;70786;48.272;14.200;2023-06-26T08:27:32;98068.09;;;25.51;43.37
81177;BME280;70786;48.272;14.200;2023-06-26T08:29:58;98060.47;;;26.57;41.35
81177;BME280;70786;48.272;14.200;2023-06-26T08:32:24;98064.66;;;27.89;38.62
81177;BME280;70786;48.272;14.200;2023-06-26T08:34:50;98061.28;;;28.39;37.58
81177;BME280;70786;48.272;14.200;2023-06-26T08:37:16;98061.69;;;28.93;36.82
81177;BME280;70786;48.272;14.200;2023-06-26T08:39:42;98067.25;;;28.03;37.74
81177;BME280;70786;48.272;14.200;2023-06-26T08:42:08;98062.97;;;28.65;35.50
81177;BME280;70786;48.272;14.200;2023-06-26T08:44:34;98062.25;;;27.03;38.45
81177;BME280;70786;48.272;14.200;2023-06-26T08:47:00;98055.59;;;28.35;35.05
81177;BME280;70786;48.272;14.200;2023-06-26T08:52:22;98052.22;;;27.83;38.66
81177;BME280;70786;48.272;14.200;2023-06-26T08:54:54;98057.22;;;28.68;36.65
81177;BME280;70786;48.272;14.200;2023-06-26T08:57:22;98053.94;;;27.64;38.35
81177;BME280;70786;48.272;14.200;2023-06-26T08:59:49;98050.88;;;28.44;37.99
81177;BME280;70786;48.272;14.200;2023-06-26T09:02:15;98045.44;;;28.57;37.06
81177;BME280;70786;48.272;14.200;2023-06-26T09:04:41;98043.19;;;29.41;37.75
81177;BME280;70786;48.272;14.200;2023-06-26T09:07:07;98037.78;;;30.27;34.47
81177;BME280;70786;48.272;14.200;2023-06-26T09:09:33;98038.00;;;30.25;35.15
81177;BME280;70786;48.272;14.200;2023-06-26T09:12:02;98034.38;;;30.08;35.08
81177;BME280;70786;48.272;14.200;2023-06-26T09:14:29;98032.47;;;30.27;36.42
81177;BME280;70786;48.272;14.200;2023-06-26T09:16:55;98035.09;;;29.85;35.74
81177;BME280;70786;48.272;14.200;2023-06-26T09:19:21;98037.84;;;29.78;35.84
81177;BME280;70786;48.272;14.200;2023-06-26T09:21:49;98026.53;;;30.25;33.10
81177;BME280;70786;48.272;14.200;2023-06-26T09:24:16;98026.78;;;29.07;38.93
81177;BME280;70786;48.272;14.200;2023-06-26T09:26:43;98025.63;;;30.01;37.10
81177;BME280;70786;48.272;14.200;2023-06-26T09:29:09;98023.91;;;30.72;35.17
81177;BME280;70786;48.272;14.200;2023-06-26T09:31:39;98036.66;;;31.81;32.42
81177;BME280;70786;48.272;14.200;2023-06-26T09:34:05;98027.66;;;31.06;33.12
81177;BME280;70786;48.272;14.200;2023-06-26T09:36:32;98019.94;;;31.33;32.17
81177;BME280;70786;48.272;14.200;2023-06-26T09:39:03;98022.78;;;31.15;34.19
81177;BME280;70786;48.272;14.200;2023-06-26T09:41:37;98014.34;;;29.75;35.50
81177;BME280;70786;48.272;14.200;2023-06-26T09:44:06;98022.03;;;30.49;35.21
81177;BME280;70786;48.272;14.200;2023-06-26T09:46:33;98018.03;;;30.93;34.45
81177;BME280;70786;48.272;14.200;2023-06-26T09:49:10;98021.38;;;31.12;32.61
81177;BME280;70786;48.272;14.200;2023-06-26T09:51:39;98017.09;;;30.52;33.50
81177;BME280;70786;48.272;14.200;2023-06-26T09:54:06;98016.06;;;29.51;35.92
81177;BME280;70786;48.272;14.200;2023-06-26T09:56:33;98010.38;;;30.73;34.92
81177;BME280;70786;48.272;14.200;2023-06-26T09:59:00;98009.78;;;31.06;33.55
81177;BME280;70786;48.272;14.200;2023-06-26T10:01:27;98007.53;;;31.39;34.35
81177;BME280;70786;48.272;14.200;2023-06-26T10:03:54;98005.03;;;30.61;30.42
81177;BME280;70786;48.272;14.200;2023-06-26T10:06:46;98004.63;;;31.97;29.50
81177;BME280;70786;48.272;14.200;2023-06-26T10:09:14;97998.50;;;30.46;30.05
81177;BME280;70786;48.272;14.200;2023-06-26T10:12:00;97989.84;;;30.74;31.88
81177;BME280;70786;48.272;14.200;2023-06-26T10:14:33;97994.28;;;32.01;31.88
81177;BME280;70786;48.272;14.200;2023-06-26T10:17:01;97993.47;;;32.17;32.08
81177;BME280;70786;48.272;14.200;2023-06-26T10:19:30;97989.41;;;30.11;32.57
81177;BME280;70786;48.272;14.200;2023-06-26T10:21:58;97989.81;;;30.27;33.63
81177;BME280;70786;48.272;14.200;2023-06-26T10:24:26;97989.31;;;31.24;32.27
81177;BME280;70786;48.272;14.200;2023-06-26T10:27:02;97984.81;;;29.58;31.12
81177;BME280;70786;48.272;14.200;2023-06-26T10:29:30;97983.56;;;30.56;32.05
81177;BME280;70786;48.272;14.200;2023-06-26T10:32:00;97985.34;;;31.38;32.31
81177;BME280;70786;48.272;14.200;2023-06-26T10:34:27;97982.41;;;31.51;32.32
81177;BME280;70786;48.272;14.200;2023-06-26T10:37:01;97977.44;;;32.34;33.04
81177;BME280;70786;48.272;14.200;2023-06-26T10:39:53;97971.47;;;30.18;31.03
81177;BME280;70786;48.272;14.200;2023-06-26T10:42:34;97974.69;;;31.67;29.44
81177;BME280;70786;48.272;14.200;2023-06-26T10:45:17;97968.69;;;31.76;31.89
81177;BME280;70786;48.272;14.200;2023-06-26T10:47:48;97970.78;;;32.20;28.62
81177;BME280;70786;48.272;14.200;2023-06-26T10:55:47;97951.75;;;32.33;34.38
81177;BME280;70786;48.272;14.200;2023-06-26T11:03:47;97951.13;;;31.92;29.60
81177;BME280;70786;48.272;14.200;2023-06-26T11:06:18;97949.25;;;31.64;31.78
81177;BME280;70786;48.272;14.200;2023-06-26T11:09:00;97947.38;;;32.27;31.99
81177;BME280;70786;48.272;14.200;2023-06-26T11:14:24;97949.03;;;31.37;33.14
81177;BME280;70786;48.272;14.200;2023-06-26T11:16:51;97951.69;;;32.11;29.81
81177;BME280;70786;48.272;14.200;2023-06-26T11:19:18;97947.25;;;31.88;32.01
81177;BME280;70786;48.272;14.200;2023-06-26T11:21:45;97946.13;;;31.84;31.11
81177;BME280;70786;48.272;14.200;2023-06-26T11:24:12;97941.97;;;30.67;30.98
81177;BME280;70786;48.272;14.200;2023-06-26T11:26:40;97937.66;;;31.30;33.26
81177;BME280;70786;48.272;14.200;2023-06-26T11:29:07;97930.69;;;30.77;31.16
81177;BME280;70786;48.272;14.200;2023-06-26T11:31:35;97925.84;;;31.54;31.92
81177;BME280;70786;48.272;14.200;2023-06-26T11:34:04;97933.88;;;31.14;34.21
81177;BME280;70786;48.272;14.200;2023-06-26T11:36:31;97922.88;;;31.68;29.36
81177;BME280;70786;48.272;14.200;2023-06-26T11:38:59;97928.03;;;32.03;28.92
81177;BME280;70786;48.272;14.200;2023-06-26T11:41:30;97924.25;;;31.53;31.43
81177;BME280;70786;48.272;14.200;2023-06-26T11:46:30;97920.38;;;31.32;32.52
81177;BME280;70786;48.272;14.200;2023-06-26T11:48:56;97920.97;;;31.97;30.85
81177;BME280;70786;48.272;14.200;2023-06-26T11:51:22;97915.47;;;31.41;28.27
81177;BME280;70786;48.272;14.200;2023-06-26T11:53:48;97914.31;;;31.37;31.58
81177;BME280;70786;48.272;14.200;2023-06-26T11:56:16;97908.16;;;31.82;29.77
81177;BME280;70786;48.272;14.200;2023-06-26T11:59:16;97910.13;;;32.04;30.15
81177;BME280;70786;48.272;14.200;2023-06-26T12:01:44;97910.34;;;31.68;28.36
81177;BME280;70786;48.272;14.200;2023-06-26T12:04:11;97905.50;;;31.37;27.93
81177;BME280;70786;48.272;14.200;2023-06-26T12:06:39;97907.44;;;32.20;28.14
81177;BME280;70786;48.272;14.200;2023-06-26T12:09:09;97908.63;;;31.33;26.29
81177;BME280;70786;48.272;14.200;2023-06-26T12:11:44;97902.34;;;31.68;28.46
81177;BME280;70786;48.272;14.200;2023-06-26T12:14:10;97907.25;;;31.76;27.41
81177;BME280;70786;48.272;14.200;2023-06-26T12:16:37;97904.50;;;31.88;27.73
81177;BME280;70786;48.272;14.200;2023-06-26T12:19:06;97902.38;;;30.87;28.14
81177;BME280;70786;48.272;14.200;2023-06-26T12:24:04;97896.81;;;31.58;27.29
81177;BME280;70786;48.272;14.200;2023-06-26T12:26:31;97905.19;;;30.81;28.29
81177;BME280;70786;48.272;14.200;2023-06-26T12:29:08;97891.34;;;31.36;28.00
81177;BME280;70786;48.272;14.200;2023-06-26T12:31:34;97897.25;;;31.38;27.99
81177;BME280;70786;48.272;14.200;2023-06-26T12:34:02;97900.47;;;31.69;30.42
81177;BME280;70786;48.272;14.200;2023-06-26T12:36:39;97894.34;;;31.40;27.96
81177;BME280;70786;48.272;14.200;2023-06-26T12:39:09;97889.75;;;29.89;31.48
81177;BME280;70786;48.272;14.200;2023-06-26T12:41:36;97893.75;;;30.33;30.81
81177;BME280;70786;48.272;14.200;2023-06-26T12:46:49;97886.19;;;30.18;30.95
81177;BME280;70786;48.272;14.200;2023-06-26T12:49:18;97885.78;;;31.26;31.09
81177;BME280;70786;48.272;14.200;2023-06-26T12:51:45;97885.53;;;31.39;29.89
81177;BME280;70786;48.272;14.200;2023-06-26T12:54:11;97884.47;;;31.40;27.40
81177;BME280;70786;48.272;14.200;2023-06-26T12:56:37;97888.69;;;31.36;28.98
81177;BME280;70786;48.272;14.200;2023-06-26T12:59:03;97880.34;;;31.49;29.81
81177;BME280;70786;48.272;14.200;2023-06-26T13:01:29;97868.47;;;31.57;28.33
81177;BME280;70786;48.272;14.200;2023-06-26T13:03:55;97870.75;;;31.48;29.82
81177;BME280;70786;48.272;14.200;2023-06-26T13:06:21;97870.34;;;31.57;29.78
81177;BME280;70786;48.272;14.200;2023-06-26T13:08:47;97858.69;;;31.79;28.13
81177;BME280;70786;48.272;14.200;2023-06-26T13:11:14;97859.47;;;31.92;28.21
81177;BME280;70786;48.272;14.200;2023-06-26T13:13:42;97852.97;;;30.97;30.47
81177;BME280;70786;48.272;14.200;2023-06-26T13:16:08;97856.78;;;31.29;29.18
81177;BME280;70786;48.272;14.200;2023-06-26T13:18:34;97852.47;;;31.28;30.24
81177;BME280;70786;48.272;14.200;2023-06-26T13:21:00;97847.50;;;31.49;28.31
81177;BME280;70786;48.272;14.200;2023-06-26T13:23:26;97850.50;;;31.36;30.13
81177;BME280;70786;48.272;14.200;2023-06-26T13:25:54;97838.19;;;31.85;27.87
81177;BME280;70786;48.272;14.200;2023-06-26T13:28:19;97842.41;;;31.64;30.30
81177;BME280;70786;48.272;14.200;2023-06-26T13:30:45;97841.84;;;31.17;30.55